createdAt,value
2023-05-07T00:05:15.664Z,7.87
2023-05-07T00:10:26.423Z,8.63
2023-05-07T00:15:31.639Z,8.53
2023-05-07T00:20:44.104Z,10.10
2023-05-07T00:25:53.218Z,7.30
2023-05-07T00:31:02.033Z,8.40
2023-05-07T00:36:10.877Z,7.30
2023-05-07T00:41:22.564Z,9.13
2023-05-07T00:46:28.976Z,8.37
2023-05-07T00:51:34.422Z,8.30
2023-05-07T00:56:41.949Z,8.27
2023-05-07T01:02:00.510Z,8.87
2023-05-07T01:07:08.503Z,10.00
2023-05-07T01:12:16.876Z,10.90
2023-05-07T01:17:22.817Z,9.40
2023-05-07T01:22:33.693Z,12.67
2023-05-07T01:27:41.611Z,9.77
2023-05-07T01:32:53.157Z,10.30
2023-05-07T01:38:00.048Z,9.53
2023-05-07T01:43:07.402Z,11.60
2023-05-07T01:48:16.518Z,11.33
2023-05-07T01:53:26.142Z,10.97
2023-05-07T01:58:31.299Z,11.60
2023-05-07T02:03:36.583Z,12.40
2023-05-07T02:08:50.676Z,12.33
2023-05-07T02:13:57.704Z,12.23
2023-05-07T02:19:04.234Z,12.37
2023-05-07T02:24:13.109Z,12.37
2023-05-07T02:29:18.179Z,12.23
2023-05-07T02:34:24.942Z,12.20
2023-05-07T02:39:31.598Z,12.20
2023-05-07T02:44:39.616Z,12.63
2023-05-07T02:49:43.914Z,12.43
2023-05-07T02:54:55.515Z,12.93
2023-05-07T03:00:05.762Z,12.23
2023-05-07T03:05:12.052Z,12.07
2023-05-07T03:10:19.938Z,12.37
2023-05-07T03:15:25.105Z,11.67
2023-05-07T03:20:32.278Z,12.73
2023-05-07T03:25:38.632Z,11.43
2023-05-07T03:30:46.980Z,12.40
2023-05-07T03:35:52.674Z,10.97
2023-05-07T03:41:01.501Z,11.60
2023-05-07T03:46:09.411Z,12.37
2023-05-07T03:51:14.775Z,13.37
2023-05-07T03:56:24.058Z,11.93
2023-05-07T04:01:29.095Z,12.37
2023-05-07T04:06:37.615Z,13.43
2023-05-07T04:11:45.432Z,13.10
2023-05-07T04:16:50.830Z,12.23
2023-05-07T04:21:57.302Z,13.43
2023-05-07T04:27:07.066Z,13.70
2023-05-07T04:32:16.549Z,12.63
2023-05-07T04:37:21.747Z,13.87
2023-05-07T04:42:28.474Z,14.93
2023-05-07T04:47:33.158Z,12.00
2023-05-07T04:52:50.877Z,12.83
2023-05-07T04:58:03.300Z,12.27
2023-05-07T05:03:07.900Z,10.93
2023-05-07T05:08:12.702Z,9.40
2023-05-07T05:13:21.417Z,10.93
2023-05-07T05:18:26.039Z,10.30
2023-05-07T05:23:33.301Z,9.43
2023-05-07T05:28:39.868Z,9.87
2023-05-07T05:33:46.934Z,9.23
2023-05-07T05:39:00.372Z,9.53
2023-05-07T05:44:10.673Z,9.50
2023-05-07T05:49:16.249Z,8.37
2023-05-07T05:54:24.634Z,8.50
2023-05-07T05:59:36.916Z,8.23
2023-05-07T06:04:47.132Z,7.93
2023-05-07T06:09:52.514Z,7.67
2023-05-07T06:14:58.648Z,8.30
2023-05-07T06:20:03.817Z,8.53
2023-05-07T06:25:08.601Z,8.63
2023-05-07T06:30:16.696Z,9.03
2023-05-07T06:35:20.684Z,13.03
2023-05-07T06:40:27.662Z,9.07
2023-05-07T06:45:34.374Z,9.47
2023-05-07T06:50:39.049Z,10.13
2023-05-07T06:55:48.510Z,9.83
2023-05-07T07:00:57.252Z,9.83
2023-05-07T07:06:11.836Z,7.57
2023-05-07T07:11:19.018Z,7.80
2023-05-07T07:16:28.662Z,7.30
2023-05-07T07:21:36.547Z,6.43
2023-05-07T07:26:56.110Z,6.37
2023-05-07T07:32:07.357Z,6.90
2023-05-07T07:37:12.363Z,6.87
2023-05-07T07:42:19.854Z,5.63
2023-05-07T07:47:28.722Z,5.73
2023-05-07T07:52:37.197Z,4.80
2023-05-07T07:57:42.253Z,4.80
2023-05-07T08:02:52.581Z,5.60
2023-05-07T08:07:57.802Z,4.10
2023-05-07T08:13:06.985Z,3.93
2023-05-07T08:18:12.824Z,3.60
2023-05-07T08:23:18.860Z,4.10
2023-05-07T08:28:28.009Z,4.00
2023-05-07T08:33:37.498Z,3.53
2023-05-07T08:38:44.663Z,4.13
2023-05-07T08:43:53.393Z,3.97
2023-05-07T08:49:07.738Z,3.57
2023-05-07T08:54:18.409Z,3.67
2023-05-07T08:59:28.139Z,3.63
2023-05-07T09:04:37.041Z,4.00
2023-05-07T09:09:48.572Z,4.25
2023-05-07T09:14:59.387Z,4.05
2023-05-07T09:20:10.843Z,4.47
2023-05-07T09:25:17.064Z,4.40
2023-05-07T09:30:25.934Z,4.20
2023-05-07T09:35:35.360Z,5.35
2023-05-07T09:40:41.017Z,5.05
2023-05-07T09:45:52.728Z,4.47
2023-05-07T09:51:10.365Z,4.30
2023-05-07T09:56:23.709Z,4.30
2023-05-07T10:07:19.289Z,5.20
2023-05-07T10:12:25.226Z,4.10
2023-05-07T10:17:38.916Z,3.90
2023-05-07T10:22:54.754Z,3.67
2023-05-07T10:28:02.734Z,3.72
2023-05-07T10:33:13.808Z,5.18
2023-05-07T10:38:23.547Z,3.65
2023-05-07T10:43:43.512Z,3.30
2023-05-07T10:49:15.125Z,3.35
2023-05-07T10:54:30.683Z,3.70
2023-05-07T10:59:48.759Z,4.35
2023-05-07T11:05:23.961Z,5.10
2023-05-07T11:10:53.568Z,5.57
2023-05-07T11:16:00.580Z,6.80
2023-05-07T11:21:08.849Z,4.13
2023-05-07T11:26:14.193Z,5.13
2023-05-07T11:31:39.060Z,4.40
2023-05-07T11:36:46.744Z,3.72
2023-05-07T11:41:54.689Z,4.10
2023-05-07T11:47:03.309Z,4.97
2023-05-07T11:52:09.183Z,4.07
2023-05-07T11:57:19.598Z,4.47
2023-05-07T12:02:24.372Z,4.65
2023-05-07T12:07:46.828Z,4.40
2023-05-07T12:13:00.348Z,4.60
2023-05-07T12:18:09.235Z,4.03
2023-05-07T12:23:17.432Z,4.18
2023-05-07T12:28:26.845Z,4.10
2023-05-07T12:33:33.125Z,4.95
2023-05-07T12:38:42.271Z,4.82
2023-05-07T12:43:51.324Z,4.63
2023-05-07T12:49:08.708Z,3.72
2023-05-07T12:54:14.433Z,3.97
2023-05-07T12:59:28.822Z,3.40
2023-05-07T13:04:38.996Z,3.70
2023-05-07T13:09:49.390Z,3.38
2023-05-07T13:14:56.697Z,3.83
2023-05-07T13:20:03.523Z,3.80
2023-05-07T13:25:11.452Z,3.47
2023-05-07T13:30:42.961Z,3.38
2023-05-07T13:35:48.988Z,2.83
2023-05-07T13:40:54.581Z,2.92
2023-05-07T13:46:06.024Z,3.05
2023-05-07T13:51:15.313Z,2.30
2023-05-07T13:56:22.798Z,4.90
2023-05-07T14:01:30.405Z,2.72
2023-05-07T14:06:45.029Z,3.75
2023-05-07T14:12:04.335Z,2.42
2023-05-07T14:17:15.946Z,2.17
2023-05-07T14:22:24.485Z,2.17
2023-05-07T14:27:29.172Z,3.20
2023-05-07T14:32:35.451Z,5.40
2023-05-07T14:37:45.828Z,3.35
2023-05-07T14:42:52.251Z,2.50
2023-05-07T14:47:58.420Z,3.38
2023-05-07T14:53:03.717Z,1.85
2023-05-07T14:58:10.399Z,2.55
2023-05-07T15:03:19.646Z,2.00
2023-05-07T15:08:25.349Z,1.73
2023-05-07T15:13:34.143Z,1.65
2023-05-07T15:18:44.174Z,1.63
2023-05-07T15:23:50.530Z,4.07
2023-05-07T15:28:58.111Z,2.35
2023-05-07T15:34:06.341Z,2.17
2023-05-07T15:39:12.102Z,2.22
2023-05-07T15:44:32.083Z,3.33
2023-05-07T15:49:45.203Z,2.88
2023-05-07T15:54:51.802Z,5.72
2023-05-07T15:59:56.187Z,2.53
2023-05-07T16:05:03.562Z,2.55
2023-05-07T16:10:10.996Z,2.50
2023-05-07T16:15:29.483Z,2.70
2023-05-07T16:20:42.527Z,2.75
2023-05-07T16:25:48.002Z,2.67
2023-05-07T16:30:54.919Z,4.97
2023-05-07T16:36:08.132Z,2.72
2023-05-07T16:41:14.594Z,5.22
2023-05-07T16:46:25.380Z,3.95
2023-05-07T16:51:31.614Z,4.57
2023-05-07T16:56:54.473Z,3.75
2023-05-07T17:02:05.485Z,3.63
2023-05-07T17:07:23.929Z,4.28
2023-05-07T17:12:37.948Z,3.70
2023-05-07T17:17:44.238Z,3.30
2023-05-07T17:22:58.510Z,8.93
2023-05-07T17:28:03.284Z,4.88
2023-05-07T17:33:20.172Z,3.20
2023-05-07T17:38:30.825Z,3.38
2023-05-07T17:43:40.955Z,4.15
2023-05-07T17:48:49.479Z,4.13
2023-05-07T17:53:55.219Z,4.00
2023-05-07T17:59:02.165Z,4.20
2023-05-07T18:04:13.720Z,3.38
2023-05-07T18:09:24.516Z,3.42
2023-05-07T18:14:30.713Z,5.20
2023-05-07T18:19:40.210Z,4.13
2023-05-07T18:24:46.715Z,4.57
2023-05-07T18:29:55.780Z,3.67
2023-05-07T18:35:00.978Z,3.30
2023-05-07T18:40:09.683Z,3.47
2023-05-07T18:45:16.862Z,4.37
2023-05-07T18:50:22.247Z,3.93
2023-05-07T18:55:34.415Z,4.60
2023-05-07T19:00:39.506Z,3.87
2023-05-07T19:05:46.774Z,3.80
2023-05-07T19:11:03.036Z,3.40
2023-05-07T19:16:14.057Z,4.10
2023-05-07T19:21:18.493Z,5.90
2023-05-07T19:26:25.260Z,4.53
2023-05-07T19:31:33.836Z,4.53
2023-05-07T19:36:40.654Z,4.83
2023-05-07T19:42:08.984Z,4.87
2023-05-07T19:47:14.196Z,3.63
2023-05-07T19:52:19.532Z,4.03
2023-05-07T19:57:28.949Z,3.27
2023-05-07T20:02:37.291Z,4.27
2023-05-07T20:07:42.503Z,4.20
2023-05-07T20:12:52.393Z,3.97
2023-05-07T20:18:00.044Z,3.70
2023-05-07T20:23:08.818Z,4.40
2023-05-07T20:28:16.414Z,3.70
2023-05-07T20:33:22.391Z,4.67
2023-05-07T20:38:31.807Z,3.77
2023-05-07T20:43:40.268Z,5.37
2023-05-07T20:48:49.932Z,4.93
2023-05-07T20:54:09.337Z,3.80
2023-05-07T20:59:20.878Z,4.47
2023-05-07T21:04:26.590Z,3.77
2023-05-07T21:09:30.422Z,4.53
2023-05-07T21:14:37.672Z,11.70
2023-05-07T21:19:43.686Z,4.20
2023-05-07T21:24:49.106Z,3.97
2023-05-07T21:29:59.185Z,5.03
2023-05-07T21:35:06.575Z,4.80
2023-05-07T21:40:14.408Z,4.00
2023-05-07T21:45:21.378Z,5.20
2023-05-07T21:50:25.932Z,4.90
2023-05-07T21:55:31.655Z,6.70
2023-05-07T22:00:39.796Z,4.43
2023-05-07T22:05:49.730Z,5.13
2023-05-07T22:16:19.433Z,5.30
2023-05-07T22:21:24.640Z,5.00
2023-05-07T22:26:32.491Z,4.60
2023-05-07T22:31:39.839Z,5.03
2023-05-07T22:36:45.120Z,4.23
2023-05-07T22:41:50.214Z,6.40
2023-05-07T22:46:58.829Z,4.30
2023-05-07T22:52:04.476Z,4.10
2023-05-07T22:57:08.992Z,4.23
2023-05-07T23:02:16.760Z,5.00
2023-05-07T23:07:24.021Z,5.70
2023-05-07T23:12:28.316Z,5.60
2023-05-07T23:17:34.846Z,4.77
2023-05-07T23:22:39.875Z,4.40
2023-05-07T23:33:14.798Z,5.33
2023-05-07T23:38:21.844Z,4.27
2023-05-07T23:43:27.199Z,4.43
2023-05-07T23:48:37.565Z,6.70
2023-05-07T23:53:50.281Z,4.50
2023-05-07T23:58:56.348Z,4.80
